CST,Max TemperatureF,Mean TemperatureF,Min TemperatureF,Max Dew PointF,MeanDew PointF,Min DewpointF,Max Humidity, Mean Humidity, Min Humidity, Max Sea Level PressureIn, Mean Sea Level PressureIn, Min Sea Level PressureIn, Max VisibilityMiles, Mean VisibilityMiles, Min VisibilityMiles, Max Wind SpeedMPH, Mean Wind SpeedMPH, Max Gust SpeedMPH,PrecipitationIn, CloudCover, Events, WindDirDegrees
2013-11-1,71,58,44,63,50,36,94,70,35,29.87,29.81,29.73,10,9,0,15,6,23,0.00,2,Fog-Rain,245
2013-11-2,64,50,37,46,37,30,100,66,28,30.12,29.95,29.86,10,10,7,16,2,22,0.00,2,,322
2013-11-3,62,48,33,39,34,27,93,67,26,30.29,30.21,30.12,10,9,0,8,1,,0.00,0,,53
2013-11-4,64,50,35,36,33,32,93,52,30,30.40,30.35,30.30,10,9,2,14,3,23,0.00,0,,105
2013-11-5,62,54,46,37,33,30,62,44,34,30.43,30.36,30.28,10,10,10,12,5,22,0.00,4,,85
2013-11-6,71,62,53,55,51,39,88,69,53,30.28,30.18,30.07,10,10,7,10,5,18,0.00,7,,167
2013-11-7,62,48,33,59,40,28,94,70,36,30.30,30.19,30.05,10,9,2,16,5,24,0.03,4,Rain,342
2013-11-8,59,44,30,32,27,16,100,66,19,30.37,30.30,30.25,10,10,5,13,2,,0.00,0,,43
2013-11-9,59,46,32,37,32,27,100,65,31,30.33,30.28,30.22,10,10,3,8,1,,0.00,1,,172
2013-11-10,69,53,37,41,36,30,87,61,23,30.33,30.27,30.23,10,10,10,10,2,16,0.00,2,,25
2013-11-11,68,50,32,34,29,18,100,59,15,30.31,30.23,30.16,10,10,10,7,1,,0.00,1,,196
2013-11-12,53,42,30,41,26,12,93,61,36,30.51,30.33,30.17,10,10,10,26,6,33,0.00,3,,8
2013-11-13,50,38,24,19,13,3,80,47,15,30.62,30.52,30.46,10,10,5,9,4,,0.00,0,,42
2013-11-14,57,39,21,27,18,3,93,57,12,30.48,30.37,30.26,10,9,2,8,1,,0.00,0,,115
2013-11-15,55,44,33,46,38,23,87,66,40,30.26,30.19,30.10,10,9,5,12,3,18,0.00,6,Rain,126
2013-11-16,62,56,50,54,51,46,88,80,72,30.18,30.13,30.08,10,8,4,9,4,18,0.00,8,,121
2013-11-17,68,64,60,64,60,54,94,86,77,30.06,29.96,29.88,10,6,1,12,7,22,0.04,8,Rain,182
2013-11-18,68,54,41,64,39,27,94,58,23,30.14,30.05,29.93,10,9,0,16,5,22,0.00,2,Fog-Rain,8
2013-11-19,55,44,33,30,25,18,87,49,23,30.20,30.15,30.10,10,10,10,15,7,22,0.00,0,,33
2013-11-20,59,46,33,32,29,25,87,47,31,30.29,30.22,30.16,10,10,2,15,6,28,0.00,2,,105
2013-11-21,62,56,51,46,41,32,77,59,47,30.34,30.30,30.25,10,10,10,12,5,18,0.00,7,,116
2013-11-22,64,58,53,57,53,46,94,85,68,30.32,30.25,30.19,10,6,1,8,2,,0.00,8,Rain,145
2013-11-23,53,43,33,50,37,19,88,70,50,30.36,30.28,30.20,10,10,7,16,7,25,0.00,4,Rain,357
2013-11-24,41,34,26,19,10,-4,64,42,15,30.53,30.44,30.36,10,10,10,20,11,25,0.00,0,,30
2013-11-25,42,34,26,34,17,5,93,50,24,30.42,30.32,30.14,10,9,4,13,3,21,0.02,4,Rain,89
2013-11-26,48,42,37,46,39,34,100,91,81,30.13,29.89,29.75,10,6,1,13,5,22,0.19,8,Rain-Snow,20
2013-11-27,37,30,23,34,22,12,87,66,48,30.33,30.09,29.81,10,10,7,18,10,28,0.00,4,Rain,346
2013-11-28,48,32,17,25,18,14,93,68,25,30.48,30.41,30.33,10,10,10,7,1,,0.00,0,,70
2013-11-29,57,39,21,30,23,14,93,68,22,30.55,30.49,30.43,10,10,7,6,2,,0.00,0,,51
2013-11-30,53,40,28,28,25,21,93,48,28,30.52,30.41,30.29,10,10,10,10,2,18,0.00,0,,138